sensor_id;sensor_type;location;lat;lon;timestamp;P1;durP1;ratioP1;P2;durP2;ratioP2
14394;SDS011;7282;49.204;10.652;2022-10-31T00:03:13;8.40;;;7.70;;
14394;SDS011;7282;49.204;10.652;2022-10-31T00:05:46;40.70;;;11.27;;
14394;SDS011;7282;49.204;10.652;2022-10-31T00:08:14;7.30;;;6.70;;
14394;SDS011;7282;49.204;10.652;2022-10-31T00:10:41;8.17;;;7.37;;
14394;SDS011;7282;49.204;10.652;2022-10-31T00:13:08;7.47;;;6.87;;
14394;SDS011;7282;49.204;10.652;2022-10-31T00:15:35;7.37;;;6.80;;
14394;SDS011;7282;49.204;10.652;2022-10-31T00:18:03;7.87;;;7.27;;
14394;SDS011;7282;49.204;10.652;2022-10-31T00:20:30;8.90;;;8.20;;
14394;SDS011;7282;49.204;10.652;2022-10-31T00:22:57;9.17;;;7.30;;
14394;SDS011;7282;49.204;10.652;2022-10-31T00:25:24;9.23;;;8.33;;
14394;SDS011;7282;49.204;10.652;2022-10-31T00:27:51;9.30;;;8.50;;
14394;SDS011;7282;49.204;10.652;2022-10-31T00:30:18;9.70;;;8.80;;
14394;SDS011;7282;49.204;10.652;2022-10-31T00:32:45;12.57;;;10.40;;
14394;SDS011;7282;49.204;10.652;2022-10-31T00:35:12;11.97;;;10.63;;
14394;SDS011;7282;49.204;10.652;2022-10-31T00:37:38;11.40;;;10.30;;
14394;SDS011;7282;49.204;10.652;2022-10-31T00:40:05;10.50;;;9.50;;
14394;SDS011;7282;49.204;10.652;2022-10-31T00:42:32;10.87;;;9.83;;
14394;SDS011;7282;49.204;10.652;2022-10-31T00:44:59;10.93;;;9.93;;
14394;SDS011;7282;49.204;10.652;2022-10-31T00:47:26;10.67;;;9.67;;
14394;SDS011;7282;49.204;10.652;2022-10-31T00:49:52;11.23;;;9.63;;
14394;SDS011;7282;49.204;10.652;2022-10-31T00:52:19;9.60;;;8.70;;
14394;SDS011;7282;49.204;10.652;2022-10-31T00:54:46;9.13;;;8.27;;
14394;SDS011;7282;49.204;10.652;2022-10-31T00:57:12;9.13;;;8.33;;
14394;SDS011;7282;49.204;10.652;2022-10-31T00:59:39;8.50;;;7.70;;
14394;SDS011;7282;49.204;10.652;2022-10-31T01:02:06;7.97;;;7.27;;
14394;SDS011;7282;49.204;10.652;2022-10-31T01:04:32;7.97;;;7.17;;
14394;SDS011;7282;49.204;10.652;2022-10-31T01:06:59;8.30;;;7.50;;
14394;SDS011;7282;49.204;10.652;2022-10-31T01:09:26;7.40;;;6.80;;
14394;SDS011;7282;49.204;10.652;2022-10-31T01:11:52;8.30;;;7.40;;
14394;SDS011;7282;49.204;10.652;2022-10-31T01:14:19;7.40;;;6.80;;
14394;SDS011;7282;49.204;10.652;2022-10-31T01:16:46;7.90;;;7.10;;
14394;SDS011;7282;49.204;10.652;2022-10-31T01:19:12;7.43;;;6.83;;
14394;SDS011;7282;49.204;10.652;2022-10-31T01:21:39;8.93;;;8.03;;
14394;SDS011;7282;49.204;10.652;2022-10-31T01:24:06;9.17;;;8.37;;
14394;SDS011;7282;49.204;10.652;2022-10-31T01:26:33;8.87;;;8.07;;
14394;SDS011;7282;49.204;10.652;2022-10-31T01:29:01;9.60;;;8.80;;
14394;SDS011;7282;49.204;10.652;2022-10-31T01:31:31;9.07;;;8.13;;
14394;SDS011;7282;49.204;10.652;2022-10-31T01:33:58;6.43;;;5.93;;
14394;SDS011;7282;49.204;10.652;2022-10-31T01:36:30;6.80;;;6.30;;
14394;SDS011;7282;49.204;10.652;2022-10-31T01:38:58;6.70;;;6.10;;
14394;SDS011;7282;49.204;10.652;2022-10-31T01:41:27;5.87;;;5.47;;
14394;SDS011;7282;49.204;10.652;2022-10-31T01:43:59;5.87;;;5.37;;
14394;SDS011;7282;49.204;10.652;2022-10-31T01:46:27;5.40;;;5.00;;
14394;SDS011;7282;49.204;10.652;2022-10-31T01:48:51;4.90;;;4.50;;
14394;SDS011;7282;49.204;10.652;2022-10-31T01:51:20;5.33;;;4.83;;
14394;SDS011;7282;49.204;10.652;2022-10-31T01:53:47;5.97;;;5.57;;
14394;SDS011;7282;49.204;10.652;2022-10-31T01:56:14;6.23;;;5.73;;
14394;SDS011;7282;49.204;10.652;2022-10-31T01:58:42;7.27;;;6.40;;
14394;SDS011;7282;49.204;10.652;2022-10-31T02:01:08;6.13;;;5.63;;
14394;SDS011;7282;49.204;10.652;2022-10-31T02:03:35;5.30;;;4.90;;
14394;SDS011;7282;49.204;10.652;2022-10-31T02:06:02;4.83;;;4.53;;
14394;SDS011;7282;49.204;10.652;2022-10-31T02:08:30;4.90;;;4.60;;
14394;SDS011;7282;49.204;10.652;2022-10-31T02:10:57;5.80;;;5.30;;
14394;SDS011;7282;49.204;10.652;2022-10-31T02:13:24;6.30;;;5.80;;
14394;SDS011;7282;49.204;10.652;2022-10-31T02:15:53;5.60;;;5.20;;
14394;SDS011;7282;49.204;10.652;2022-10-31T02:18:20;5.50;;;5.10;;
14394;SDS011;7282;49.204;10.652;2022-10-31T02:23:39;6.60;;;6.10;;
14394;SDS011;7282;49.204;10.652;2022-10-31T02:26:07;6.07;;;5.60;;
14394;SDS011;7282;49.204;10.652;2022-10-31T02:33:53;5.50;;;5.10;;
14394;SDS011;7282;49.204;10.652;2022-10-31T02:36:19;5.70;;;5.30;;
14394;SDS011;7282;49.204;10.652;2022-10-31T02:38:52;5.87;;;5.43;;
14394;SDS011;7282;49.204;10.652;2022-10-31T02:49:10;7.57;;;6.87;;
14394;SDS011;7282;49.204;10.652;2022-10-31T02:51:35;7.17;;;6.37;;
14394;SDS011;7282;49.204;10.652;2022-10-31T02:54:02;9.47;;;6.43;;
14394;SDS011;7282;49.204;10.652;2022-10-31T02:56:29;6.90;;;6.30;;
14394;SDS011;7282;49.204;10.652;2022-10-31T02:58:58;6.80;;;6.10;;
14394;SDS011;7282;49.204;10.652;2022-10-31T03:01:33;6.50;;;5.90;;
14394;SDS011;7282;49.204;10.652;2022-10-31T03:06:32;7.17;;;6.57;;
14394;SDS011;7282;49.204;10.652;2022-10-31T03:09:11;6.17;;;5.67;;
14394;SDS011;7282;49.204;10.652;2022-10-31T03:11:41;6.00;;;5.50;;
14394;SDS011;7282;49.204;10.652;2022-10-31T03:14:05;6.60;;;6.00;;
14394;SDS011;7282;49.204;10.652;2022-10-31T03:17:33;6.50;;;6.00;;
14394;SDS011;7282;49.204;10.652;2022-10-31T03:19:09;6.33;;;5.83;;
14394;SDS011;7282;49.204;10.652;2022-10-31T03:21:40;6.43;;;5.93;;
14394;SDS011;7282;49.204;10.652;2022-10-31T03:24:08;6.77;;;6.17;;
14394;SDS011;7282;49.204;10.652;2022-10-31T03:26:36;7.00;;;6.40;;
14394;SDS011;7282;49.204;10.652;2022-10-31T03:29:04;7.97;;;7.17;;
14394;SDS011;7282;49.204;10.652;2022-10-31T03:31:42;7.07;;;6.40;;
14394;SDS011;7282;49.204;10.652;2022-10-31T03:34:06;7.33;;;6.73;;
14394;SDS011;7282;49.204;10.652;2022-10-31T03:36:34;7.33;;;6.63;;
14394;SDS011;7282;49.204;10.652;2022-10-31T03:39:02;8.93;;;7.87;;
14394;SDS011;7282;49.204;10.652;2022-10-31T03:41:31;10.10;;;7.50;;
14394;SDS011;7282;49.204;10.652;2022-10-31T03:44:00;8.40;;;7.57;;
14394;SDS011;7282;49.204;10.652;2022-10-31T03:46:27;8.30;;;7.60;;
14394;SDS011;7282;49.204;10.652;2022-10-31T03:48:55;6.87;;;6.30;;
14394;SDS011;7282;49.204;10.652;2022-10-31T03:51:32;8.67;;;7.20;;
14394;SDS011;7282;49.204;10.652;2022-10-31T03:54:01;12.67;;;8.87;;
14394;SDS011;7282;49.204;10.652;2022-10-31T03:56:27;10.40;;;9.30;;
14394;SDS011;7282;49.204;10.652;2022-10-31T03:59:01;9.37;;;8.43;;
14394;SDS011;7282;49.204;10.652;2022-10-31T04:01:29;12.90;;;9.50;;
14394;SDS011;7282;49.204;10.652;2022-10-31T04:03:57;11.10;;;9.47;;
14394;SDS011;7282;49.204;10.652;2022-10-31T04:06:24;14.90;;;10.47;;
14394;SDS011;7282;49.204;10.652;2022-10-31T04:08:52;19.80;;;11.10;;
14394;SDS011;7282;49.204;10.652;2022-10-31T04:11:21;16.57;;;11.30;;
14394;SDS011;7282;49.204;10.652;2022-10-31T04:13:48;10.23;;;9.33;;
14394;SDS011;7282;49.204;10.652;2022-10-31T04:16:16;15.43;;;10.67;;
14394;SDS011;7282;49.204;10.652;2022-10-31T04:18:43;11.50;;;9.47;;
14394;SDS011;7282;49.204;10.652;2022-10-31T04:21:10;15.63;;;11.87;;
14394;SDS011;7282;49.204;10.652;2022-10-31T04:23:37;11.73;;;10.60;;
14394;SDS011;7282;49.204;10.652;2022-10-31T04:26:03;12.93;;;11.07;;
14394;SDS011;7282;49.204;10.652;2022-10-31T04:28:30;20.17;;;12.23;;
14394;SDS011;7282;49.204;10.652;2022-10-31T04:30:58;11.43;;;10.43;;
14394;SDS011;7282;49.204;10.652;2022-10-31T04:33:25;14.47;;;11.43;;
14394;SDS011;7282;49.204;10.652;2022-10-31T04:35:54;14.60;;;11.17;;
14394;SDS011;7282;49.204;10.652;2022-10-31T04:38:21;13.33;;;11.90;;
14394;SDS011;7282;49.204;10.652;2022-10-31T04:40:48;12.63;;;11.43;;
14394;SDS011;7282;49.204;10.652;2022-10-31T04:43:15;14.03;;;11.80;;
14394;SDS011;7282;49.204;10.652;2022-10-31T04:45:41;12.87;;;11.60;;
14394;SDS011;7282;49.204;10.652;2022-10-31T04:48:08;12.50;;;11.10;;
14394;SDS011;7282;49.204;10.652;2022-10-31T04:50:35;12.17;;;10.90;;
14394;SDS011;7282;49.204;10.652;2022-10-31T04:53:01;16.43;;;11.80;;
14394;SDS011;7282;49.204;10.652;2022-10-31T04:55:28;15.70;;;11.50;;
14394;SDS011;7282;49.204;10.652;2022-10-31T04:57:55;14.70;;;11.37;;
14394;SDS011;7282;49.204;10.652;2022-10-31T05:00:22;13.47;;;11.87;;
14394;SDS011;7282;49.204;10.652;2022-10-31T05:02:49;17.33;;;11.60;;
14394;SDS011;7282;49.204;10.652;2022-10-31T05:05:17;11.20;;;10.00;;
14394;SDS011;7282;49.204;10.652;2022-10-31T05:07:45;15.30;;;11.77;;
14394;SDS011;7282;49.204;10.652;2022-10-31T05:10:13;18.00;;;12.73;;
14394;SDS011;7282;49.204;10.652;2022-10-31T05:12:46;12.77;;;10.07;;
14394;SDS011;7282;49.204;10.652;2022-10-31T05:15:14;14.37;;;10.37;;
14394;SDS011;7282;49.204;10.652;2022-10-31T05:17:40;14.03;;;10.80;;
14394;SDS011;7282;49.204;10.652;2022-10-31T05:20:07;12.83;;;11.03;;
14394;SDS011;7282;49.204;10.652;2022-10-31T05:22:34;13.23;;;11.30;;
14394;SDS011;7282;49.204;10.652;2022-10-31T05:25:01;14.97;;;13.37;;
14394;SDS011;7282;49.204;10.652;2022-10-31T05:27:27;13.67;;;12.30;;
14394;SDS011;7282;49.204;10.652;2022-10-31T05:29:54;12.83;;;11.50;;
14394;SDS011;7282;49.204;10.652;2022-10-31T05:32:21;13.43;;;12.17;;
14394;SDS011;7282;49.204;10.652;2022-10-31T05:34:47;12.10;;;10.90;;
14394;SDS011;7282;49.204;10.652;2022-10-31T05:37:14;11.43;;;10.33;;
14394;SDS011;7282;49.204;10.652;2022-10-31T05:39:41;13.57;;;11.67;;
14394;SDS011;7282;49.204;10.652;2022-10-31T05:42:08;11.57;;;10.47;;
14394;SDS011;7282;49.204;10.652;2022-10-31T05:44:34;12.03;;;10.63;;
14394;SDS011;7282;49.204;10.652;2022-10-31T05:47:01;11.17;;;10.00;;
14394;SDS011;7282;49.204;10.652;2022-10-31T05:49:28;10.00;;;9.03;;
14394;SDS011;7282;49.204;10.652;2022-10-31T05:51:54;10.43;;;9.50;;
14394;SDS011;7282;49.204;10.652;2022-10-31T05:54:21;10.97;;;9.87;;
14394;SDS011;7282;49.204;10.652;2022-10-31T05:56:48;12.27;;;11.03;;
14394;SDS011;7282;49.204;10.652;2022-10-31T05:59:14;11.63;;;10.50;;
14394;SDS011;7282;49.204;10.652;2022-10-31T06:01:41;10.90;;;9.90;;
14394;SDS011;7282;49.204;10.652;2022-10-31T06:04:08;10.87;;;9.77;;
14394;SDS011;7282;49.204;10.652;2022-10-31T06:06:34;11.27;;;10.27;;
14394;SDS011;7282;49.204;10.652;2022-10-31T06:09:01;10.70;;;9.70;;
14394;SDS011;7282;49.204;10.652;2022-10-31T06:11:28;11.53;;;10.43;;
14394;SDS011;7282;49.204;10.652;2022-10-31T06:13:55;10.77;;;9.83;;
14394;SDS011;7282;49.204;10.652;2022-10-31T06:16:21;11.20;;;10.10;;
14394;SDS011;7282;49.204;10.652;2022-10-31T06:18:48;11.03;;;10.07;;
14394;SDS011;7282;49.204;10.652;2022-10-31T06:21:15;12.23;;;11.03;;
14394;SDS011;7282;49.204;10.652;2022-10-31T06:23:41;9.77;;;8.87;;
14394;SDS011;7282;49.204;10.652;2022-10-31T06:26:08;10.43;;;9.43;;
14394;SDS011;7282;49.204;10.652;2022-10-31T06:28:35;10.40;;;9.40;;
14394;SDS011;7282;49.204;10.652;2022-10-31T06:31:01;10.60;;;9.57;;
14394;SDS011;7282;49.204;10.652;2022-10-31T06:33:28;9.87;;;8.77;;
14394;SDS011;7282;49.204;10.652;2022-10-31T06:38:48;10.13;;;9.00;;
14394;SDS011;7282;49.204;10.652;2022-10-31T06:41:14;11.83;;;9.33;;
14394;SDS011;7282;49.204;10.652;2022-10-31T06:43:41;9.37;;;8.47;;
14394;SDS011;7282;49.204;10.652;2022-10-31T06:46:08;9.07;;;8.27;;
14394;SDS011;7282;49.204;10.652;2022-10-31T06:48:34;10.30;;;9.30;;
14394;SDS011;7282;49.204;10.652;2022-10-31T06:51:01;9.90;;;8.90;;
14394;SDS011;7282;49.204;10.652;2022-10-31T06:53:28;9.70;;;8.77;;
14394;SDS011;7282;49.204;10.652;2022-10-31T06:55:56;9.47;;;8.63;;
14394;SDS011;7282;49.204;10.652;2022-10-31T06:58:22;9.50;;;8.60;;
14394;SDS011;7282;49.204;10.652;2022-10-31T07:00:49;9.57;;;8.70;;
14394;SDS011;7282;49.204;10.652;2022-10-31T07:03:16;11.97;;;9.93;;
14394;SDS011;7282;49.204;10.652;2022-10-31T07:05:43;10.37;;;9.37;;
14394;SDS011;7282;49.204;10.652;2022-10-31T07:08:10;10.53;;;9.53;;
14394;SDS011;7282;49.204;10.652;2022-10-31T07:10:38;10.60;;;9.60;;
14394;SDS011;7282;49.204;10.652;2022-10-31T07:13:06;10.23;;;9.00;;
14394;SDS011;7282;49.204;10.652;2022-10-31T07:15:34;10.93;;;9.63;;
14394;SDS011;7282;49.204;10.652;2022-10-31T07:18:06;10.27;;;9.27;;
14394;SDS011;7282;49.204;10.652;2022-10-31T07:20:30;12.40;;;9.63;;
14394;SDS011;7282;49.204;10.652;2022-10-31T07:22:59;12.37;;;10.43;;
14394;SDS011;7282;49.204;10.652;2022-10-31T07:25:26;11.63;;;9.93;;
14394;SDS011;7282;49.204;10.652;2022-10-31T07:27:53;12.77;;;11.03;;
14394;SDS011;7282;49.204;10.652;2022-10-31T07:30:20;12.00;;;10.67;;
14394;SDS011;7282;49.204;10.652;2022-10-31T07:32:47;12.33;;;10.43;;
14394;SDS011;7282;49.204;10.652;2022-10-31T07:35:15;11.10;;;10.00;;
14394;SDS011;7282;49.204;10.652;2022-10-31T07:37:42;10.50;;;9.60;;
14394;SDS011;7282;49.204;10.652;2022-10-31T07:40:09;11.20;;;10.00;;
14394;SDS011;7282;49.204;10.652;2022-10-31T07:42:37;11.83;;;10.63;;
14394;SDS011;7282;49.204;10.652;2022-10-31T07:45:04;11.63;;;10.43;;
14394;SDS011;7282;49.204;10.652;2022-10-31T07:47:45;11.57;;;10.53;;
14394;SDS011;7282;49.204;10.652;2022-10-31T07:50:09;11.03;;;10.03;;
14394;SDS011;7282;49.204;10.652;2022-10-31T07:52:37;10.70;;;9.80;;
14394;SDS011;7282;49.204;10.652;2022-10-31T07:55:04;12.03;;;10.83;;
14394;SDS011;7282;49.204;10.652;2022-10-31T07:57:31;12.27;;;11.03;;
14394;SDS011;7282;49.204;10.652;2022-10-31T08:00:00;12.93;;;11.57;;
14394;SDS011;7282;49.204;10.652;2022-10-31T08:02:27;27.10;;;14.60;;
14394;SDS011;7282;49.204;10.652;2022-10-31T08:04:54;22.23;;;13.13;;
14394;SDS011;7282;49.204;10.652;2022-10-31T08:07:21;14.27;;;12.87;;
14394;SDS011;7282;49.204;10.652;2022-10-31T08:09:47;13.00;;;11.70;;
14394;SDS011;7282;49.204;10.652;2022-10-31T08:12:14;12.33;;;11.17;;
14394;SDS011;7282;49.204;10.652;2022-10-31T08:14:41;13.70;;;12.40;;
14394;SDS011;7282;49.204;10.652;2022-10-31T08:20:01;13.57;;;12.27;;
14394;SDS011;7282;49.204;10.652;2022-10-31T08:22:28;13.03;;;11.83;;
14394;SDS011;7282;49.204;10.652;2022-10-31T08:24:55;13.53;;;12.33;;
14394;SDS011;7282;49.204;10.652;2022-10-31T08:27:22;14.10;;;12.80;;
14394;SDS011;7282;49.204;10.652;2022-10-31T08:29:48;15.23;;;13.77;;
14394;SDS011;7282;49.204;10.652;2022-10-31T08:32:15;15.70;;;14.23;;
14394;SDS011;7282;49.204;10.652;2022-10-31T08:34:42;15.37;;;13.80;;
14394;SDS011;7282;49.204;10.652;2022-10-31T08:37:08;17.20;;;15.40;;
14394;SDS011;7282;49.204;10.652;2022-10-31T08:39:35;15.83;;;14.33;;
14394;SDS011;7282;49.204;10.652;2022-10-31T08:42:02;16.17;;;14.50;;
14394;SDS011;7282;49.204;10.652;2022-10-31T08:44:29;16.90;;;15.30;;
14394;SDS011;7282;49.204;10.652;2022-10-31T08:46:55;17.63;;;15.93;;
14394;SDS011;7282;49.204;10.652;2022-10-31T08:49:22;16.33;;;14.83;;
14394;SDS011;7282;49.204;10.652;2022-10-31T08:51:49;17.00;;;15.37;;
14394;SDS011;7282;49.204;10.652;2022-10-31T08:54:16;19.33;;;17.43;;
14394;SDS011;7282;49.204;10.652;2022-10-31T08:56:42;19.30;;;17.37;;
14394;SDS011;7282;49.204;10.652;2022-10-31T08:59:09;17.90;;;16.00;;
14394;SDS011;7282;49.204;10.652;2022-10-31T09:01:36;17.30;;;15.60;;
14394;SDS011;7282;49.204;10.652;2022-10-31T09:04:02;17.37;;;15.67;;
14394;SDS011;7282;49.204;10.652;2022-10-31T09:06:29;16.40;;;14.67;;
14394;SDS011;7282;49.204;10.652;2022-10-31T09:08:56;16.40;;;14.93;;
14394;SDS011;7282;49.204;10.652;2022-10-31T09:11:22;17.83;;;16.07;;
14394;SDS011;7282;49.204;10.652;2022-10-31T09:13:49;17.33;;;15.53;;
14394;SDS011;7282;49.204;10.652;2022-10-31T09:16:16;20.30;;;15.67;;
14394;SDS011;7282;49.204;10.652;2022-10-31T09:18:43;16.60;;;15.00;;
14394;SDS011;7282;49.204;10.652;2022-10-31T09:21:09;17.40;;;15.60;;
14394;SDS011;7282;49.204;10.652;2022-10-31T09:23:36;16.67;;;15.07;;
14394;SDS011;7282;49.204;10.652;2022-10-31T09:26:03;16.57;;;14.97;;
14394;SDS011;7282;49.204;10.652;2022-10-31T09:28:30;20.00;;;15.43;;
14394;SDS011;7282;49.204;10.652;2022-10-31T09:30:58;14.57;;;13.17;;
14394;SDS011;7282;49.204;10.652;2022-10-31T09:33:24;13.27;;;11.97;;
14394;SDS011;7282;49.204;10.652;2022-10-31T09:35:51;14.17;;;12.77;;
14394;SDS011;7282;49.204;10.652;2022-10-31T09:38:18;15.43;;;13.83;;
14394;SDS011;7282;49.204;10.652;2022-10-31T09:40:52;14.80;;;13.33;;
14394;SDS011;7282;49.204;10.652;2022-10-31T09:51:18;12.77;;;11.43;;
14394;SDS011;7282;49.204;10.652;2022-10-31T09:53:53;12.60;;;11.40;;
14394;SDS011;7282;49.204;10.652;2022-10-31T09:56:20;11.53;;;10.50;;
14394;SDS011;7282;49.204;10.652;2022-10-31T09:58:53;14.03;;;12.37;;
14394;SDS011;7282;49.204;10.652;2022-10-31T10:01:28;12.87;;;11.67;;
14394;SDS011;7282;49.204;10.652;2022-10-31T10:03:55;12.93;;;11.50;;
14394;SDS011;7282;49.204;10.652;2022-10-31T10:06:23;13.23;;;11.83;;
14394;SDS011;7282;49.204;10.652;2022-10-31T10:08:51;12.97;;;10.90;;
14394;SDS011;7282;49.204;10.652;2022-10-31T10:14:16;10.87;;;9.87;;
14394;SDS011;7282;49.204;10.652;2022-10-31T10:19:18;10.70;;;9.60;;
14394;SDS011;7282;49.204;10.652;2022-10-31T10:21:57;9.70;;;8.80;;
14394;SDS011;7282;49.204;10.652;2022-10-31T10:24:42;10.37;;;9.30;;
14394;SDS011;7282;49.204;10.652;2022-10-31T10:27:41;11.00;;;9.90;;
14394;SDS011;7282;49.204;10.652;2022-10-31T10:29:40;10.97;;;9.90;;
14394;SDS011;7282;49.204;10.652;2022-10-31T10:32:22;10.93;;;9.83;;
14394;SDS011;7282;49.204;10.652;2022-10-31T10:34:53;10.83;;;9.73;;
14394;SDS011;7282;49.204;10.652;2022-10-31T10:37:28;10.77;;;9.67;;
14394;SDS011;7282;49.204;10.652;2022-10-31T10:39:46;10.80;;;9.80;;
14394;SDS011;7282;49.204;10.652;2022-10-31T10:42:15;10.70;;;9.60;;
14394;SDS011;7282;49.204;10.652;2022-10-31T10:45:06;10.73;;;9.63;;
14394;SDS011;7282;49.204;10.652;2022-10-31T10:47:49;9.80;;;8.80;;
14394;SDS011;7282;49.204;10.652;2022-10-31T10:50:17;10.87;;;9.77;;
14394;SDS011;7282;49.204;10.652;2022-10-31T10:52:57;11.60;;;9.40;;
14394;SDS011;7282;49.204;10.652;2022-10-31T10:55:41;10.43;;;8.80;;
14394;SDS011;7282;49.204;10.652;2022-10-31T10:58:07;10.40;;;8.60;;
14394;SDS011;7282;49.204;10.652;2022-10-31T11:00:38;11.23;;;9.90;;
14394;SDS011;7282;49.204;10.652;2022-10-31T11:03:06;12.50;;;9.20;;
14394;SDS011;7282;49.204;10.652;2022-10-31T11:05:38;9.57;;;8.57;;
14394;SDS011;7282;49.204;10.652;2022-10-31T11:08:02;10.40;;;9.00;;
14394;SDS011;7282;49.204;10.652;2022-10-31T11:10:29;11.30;;;9.00;;
14394;SDS011;7282;49.204;10.652;2022-10-31T11:12:58;9.97;;;8.63;;
14394;SDS011;7282;49.204;10.652;2022-10-31T11:15:25;10.53;;;9.47;;
14394;SDS011;7282;49.204;10.652;2022-10-31T11:17:53;11.27;;;8.77;;
14394;SDS011;7282;49.204;10.652;2022-10-31T11:20:34;10.00;;;8.37;;
14394;SDS011;7282;49.204;10.652;2022-10-31T11:23:03;10.23;;;9.03;;
14394;SDS011;7282;49.204;10.652;2022-10-31T11:25:30;11.73;;;8.83;;
14394;SDS011;7282;49.204;10.652;2022-10-31T11:30:28;13.47;;;8.77;;
14394;SDS011;7282;49.204;10.652;2022-10-31T11:32:56;8.67;;;7.73;;
14394;SDS011;7282;49.204;10.652;2022-10-31T11:35:23;9.47;;;8.30;;
14394;SDS011;7282;49.204;10.652;2022-10-31T11:37:50;10.23;;;8.40;;
14394;SDS011;7282;49.204;10.652;2022-10-31T11:40:24;10.03;;;8.23;;
14394;SDS011;7282;49.204;10.652;2022-10-31T11:42:47;8.83;;;7.77;;
14394;SDS011;7282;49.204;10.652;2022-10-31T11:47:45;9.17;;;7.60;;
14394;SDS011;7282;49.204;10.652;2022-10-31T11:50:19;8.60;;;7.03;;
14394;SDS011;7282;49.204;10.652;2022-10-31T11:52:40;9.00;;;7.20;;
14394;SDS011;7282;49.204;10.652;2022-10-31T11:55:26;11.77;;;7.90;;
14394;SDS011;7282;49.204;10.652;2022-10-31T11:57:46;8.73;;;7.03;;
14394;SDS011;7282;49.204;10.652;2022-10-31T12:00:26;9.53;;;6.47;;
14394;SDS011;7282;49.204;10.652;2022-10-31T12:05:39;9.67;;;6.97;;
14394;SDS011;7282;49.204;10.652;2022-10-31T12:08:09;8.70;;;6.57;;
14394;SDS011;7282;49.204;10.652;2022-10-31T12:10:40;10.13;;;6.47;;
14394;SDS011;7282;49.204;10.652;2022-10-31T12:13:17;6.63;;;5.13;;
14394;SDS011;7282;49.204;10.652;2022-10-31T12:15:36;9.40;;;5.80;;
14394;SDS011;7282;49.204;10.652;2022-10-31T12:18:11;7.67;;;5.30;;
14394;SDS011;7282;49.204;10.652;2022-10-31T12:23:25;10.97;;;5.40;;
14394;SDS011;7282;49.204;10.652;2022-10-31T12:26:40;6.50;;;5.10;;
14394;SDS011;7282;49.204;10.652;2022-10-31T12:28:33;7.43;;;5.07;;
14394;SDS011;7282;49.204;10.652;2022-10-31T12:36:09;9.87;;;6.17;;
14394;SDS011;7282;49.204;10.652;2022-10-31T12:38:48;8.03;;;4.90;;
14394;SDS011;7282;49.204;10.652;2022-10-31T12:43:45;6.10;;;4.80;;
14394;SDS011;7282;49.204;10.652;2022-10-31T12:49:02;8.23;;;5.10;;
14394;SDS011;7282;49.204;10.652;2022-10-31T12:51:39;6.67;;;5.13;;
14394;SDS011;7282;49.204;10.652;2022-10-31T12:56:41;6.70;;;5.07;;
14394;SDS011;7282;49.204;10.652;2022-10-31T12:59:20;5.77;;;4.77;;
14394;SDS011;7282;49.204;10.652;2022-10-31T13:04:14;9.90;;;5.53;;
14394;SDS011;7282;49.204;10.652;2022-10-31T13:06:42;8.43;;;4.90;;
14394;SDS011;7282;49.204;10.652;2022-10-31T13:09:10;10.60;;;5.27;;
14394;SDS011;7282;49.204;10.652;2022-10-31T13:11:40;10.07;;;4.90;;
14394;SDS011;7282;49.204;10.652;2022-10-31T13:14:16;6.37;;;4.60;;
14394;SDS011;7282;49.204;10.652;2022-10-31T13:16:41;7.73;;;4.27;;
14394;SDS011;7282;49.204;10.652;2022-10-31T13:22:23;8.63;;;4.70;;
14394;SDS011;7282;49.204;10.652;2022-10-31T13:24:36;6.37;;;4.10;;
14394;SDS011;7282;49.204;10.652;2022-10-31T13:27:09;5.53;;;3.80;;
14394;SDS011;7282;49.204;10.652;2022-10-31T13:29:37;4.63;;;3.47;;
14394;SDS011;7282;49.204;10.652;2022-10-31T13:32:03;5.23;;;3.90;;
14394;SDS011;7282;49.204;10.652;2022-10-31T13:34:34;7.57;;;3.83;;
14394;SDS011;7282;49.204;10.652;2022-10-31T13:39:59;8.00;;;4.07;;
14394;SDS011;7282;49.204;10.652;2022-10-31T13:42:25;5.73;;;3.57;;
14394;SDS011;7282;49.204;10.652;2022-10-31T13:44:51;6.63;;;3.90;;
14394;SDS011;7282;49.204;10.652;2022-10-31T13:47:23;6.53;;;3.90;;
14394;SDS011;7282;49.204;10.652;2022-10-31T13:49:49;4.73;;;3.57;;
14394;SDS011;7282;49.204;10.652;2022-10-31T13:52:22;5.67;;;3.80;;
14394;SDS011;7282;49.204;10.652;2022-10-31T13:54:46;8.17;;;4.20;;
14394;SDS011;7282;49.204;10.652;2022-10-31T13:57:28;13.13;;;6.80;;
14394;SDS011;7282;49.204;10.652;2022-10-31T13:59:54;7.97;;;4.90;;
14394;SDS011;7282;49.204;10.652;2022-10-31T14:02:25;6.83;;;3.97;;
14394;SDS011;7282;49.204;10.652;2022-10-31T14:04:51;5.37;;;3.53;;
14394;SDS011;7282;49.204;10.652;2022-10-31T14:07:23;5.63;;;3.57;;
14394;SDS011;7282;49.204;10.652;2022-10-31T14:12:33;5.70;;;3.80;;
14394;SDS011;7282;49.204;10.652;2022-10-31T14:15:21;5.10;;;3.73;;
14394;SDS011;7282;49.204;10.652;2022-10-31T14:17:28;4.93;;;3.33;;
14394;SDS011;7282;49.204;10.652;2022-10-31T14:22:39;5.10;;;3.50;;
14394;SDS011;7282;49.204;10.652;2022-10-31T14:27:51;4.83;;;3.67;;
14394;SDS011;7282;49.204;10.652;2022-10-31T14:30:19;4.30;;;3.20;;
14394;SDS011;7282;49.204;10.652;2022-10-31T14:33:31;5.03;;;3.57;;
14394;SDS011;7282;49.204;10.652;2022-10-31T14:35:20;5.60;;;3.63;;
14394;SDS011;7282;49.204;10.652;2022-10-31T14:38:36;6.33;;;3.30;;
14394;SDS011;7282;49.204;10.652;2022-10-31T14:40:37;4.83;;;3.40;;
14394;SDS011;7282;49.204;10.652;2022-10-31T14:45:54;5.67;;;3.57;;
14394;SDS011;7282;49.204;10.652;2022-10-31T14:51:09;4.37;;;3.57;;
14394;SDS011;7282;49.204;10.652;2022-10-31T14:53:35;6.43;;;4.10;;
14394;SDS011;7282;49.204;10.652;2022-10-31T14:56:03;5.10;;;3.80;;
14394;SDS011;7282;49.204;10.652;2022-10-31T14:58:37;5.63;;;3.93;;
14394;SDS011;7282;49.204;10.652;2022-10-31T15:01:02;7.80;;;3.77;;
14394;SDS011;7282;49.204;10.652;2022-10-31T15:03:37;6.03;;;3.73;;
14394;SDS011;7282;49.204;10.652;2022-10-31T15:06:12;5.43;;;3.67;;
14394;SDS011;7282;49.204;10.652;2022-10-31T15:08:49;4.33;;;3.90;;
14394;SDS011;7282;49.204;10.652;2022-10-31T15:11:20;4.47;;;4.03;;
14394;SDS011;7282;49.204;10.652;2022-10-31T15:16:17;4.30;;;3.70;;
14394;SDS011;7282;49.204;10.652;2022-10-31T15:18:59;5.30;;;3.80;;
14394;SDS011;7282;49.204;10.652;2022-10-31T15:21:24;4.00;;;3.40;;
14394;SDS011;7282;49.204;10.652;2022-10-31T15:23:52;3.37;;;3.07;;
14394;SDS011;7282;49.204;10.652;2022-10-31T15:26:20;3.73;;;3.37;;
14394;SDS011;7282;49.204;10.652;2022-10-31T15:28:57;4.00;;;3.60;;
14394;SDS011;7282;49.204;10.652;2022-10-31T15:31:16;5.03;;;3.87;;
14394;SDS011;7282;49.204;10.652;2022-10-31T15:33:46;6.13;;;4.53;;
14394;SDS011;7282;49.204;10.652;2022-10-31T15:36:17;4.87;;;4.03;;
14394;SDS011;7282;49.204;10.652;2022-10-31T15:38:40;4.73;;;3.97;;
14394;SDS011;7282;49.204;10.652;2022-10-31T15:41:18;7.17;;;5.23;;
14394;SDS011;7282;49.204;10.652;2022-10-31T15:43:36;8.63;;;5.47;;
14394;SDS011;7282;49.204;10.652;2022-10-31T15:46:03;7.40;;;5.60;;
14394;SDS011;7282;49.204;10.652;2022-10-31T15:48:30;9.97;;;5.37;;
14394;SDS011;7282;49.204;10.652;2022-10-31T15:50:57;6.70;;;4.77;;
14394;SDS011;7282;49.204;10.652;2022-10-31T15:53:25;10.07;;;5.33;;
14394;SDS011;7282;49.204;10.652;2022-10-31T15:55:54;5.37;;;4.53;;
14394;SDS011;7282;49.204;10.652;2022-10-31T15:58:21;7.53;;;4.80;;
14394;SDS011;7282;49.204;10.652;2022-10-31T16:00:58;7.90;;;5.53;;
14394;SDS011;7282;49.204;10.652;2022-10-31T16:03:27;8.87;;;5.47;;
14394;SDS011;7282;49.204;10.652;2022-10-31T16:05:55;5.60;;;4.33;;
14394;SDS011;7282;49.204;10.652;2022-10-31T16:10:57;9.77;;;6.00;;
14394;SDS011;7282;49.204;10.652;2022-10-31T16:13:28;9.13;;;5.67;;